Terminal Aerodrome Forecast
Issued by NWS

Home | Current Version | Previous Version | Text Only | Print | Product List | Glossary On
Versions: 1 2 3 4 5 6 7 8 9 10 11 12 13 14 15 16 17 18 19 20
000
FTAK31 PAFA 301720
TAFAFA
TAF
PAFA 301720Z 3018/0124 VRB03KT P6SM FEW250
     FM302100 07008KT P6SM BKN250
     FM010000 07010KT P6SM OVC250
     FM010600 07008KT P6SM SCT100 OVC250
     FM011500 VRB03KT P6SM SCT100 OVC250=

USA.gov is the U.S. government's official web portal to all federal, state and local government web resources and services.